sensor_id;sensor_type;location;lat;lon;timestamp;pressure;altitude;pressure_sealevel;temperature;humidity
70841;BME280;58465;51.534;9.934;2023-02-17T00:00:07;100413.47;;;9.67;69.58
70841;BME280;58465;51.534;9.934;2023-02-17T00:02:34;100410.66;;;9.78;68.85
70841;BME280;58465;51.534;9.934;2023-02-17T00:04:59;100407.03;;;9.83;68.83
70841;BME280;58465;51.534;9.934;2023-02-17T00:07:24;100408.81;;;9.83;68.90
70841;BME280;58465;51.534;9.934;2023-02-17T00:09:49;100408.78;;;9.86;68.56
70841;BME280;58465;51.534;9.934;2023-02-17T00:12:15;100396.47;;;9.76;68.61
70841;BME280;58465;51.534;9.934;2023-02-17T00:14:40;100402.66;;;9.78;68.80
70841;BME280;58465;51.534;9.934;2023-02-17T00:17:06;100391.88;;;9.85;68.58
70841;BME280;58465;51.534;9.934;2023-02-17T00:19:31;100396.31;;;9.86;68.70
70841;BME280;58465;51.534;9.934;2023-02-17T00:21:58;100399.84;;;9.90;68.24
70841;BME280;58465;51.534;9.934;2023-02-17T00:24:26;100396.22;;;9.92;68.39
70841;BME280;58465;51.534;9.934;2023-02-17T00:26:52;100392.69;;;9.90;68.31
70841;BME280;58465;51.534;9.934;2023-02-17T00:29:18;100397.06;;;9.96;68.25
70841;BME280;58465;51.534;9.934;2023-02-17T00:31:44;100394.41;;;9.94;68.26
70841;BME280;58465;51.534;9.934;2023-02-17T00:34:10;100394.53;;;9.88;68.58
70841;BME280;58465;51.534;9.934;2023-02-17T00:36:36;100390.09;;;9.86;68.62
70841;BME280;58465;51.534;9.934;2023-02-17T00:39:02;100386.53;;;9.87;68.55
70841;BME280;58465;51.534;9.934;2023-02-17T00:41:28;100391.78;;;9.91;68.55
70841;BME280;58465;51.534;9.934;2023-02-17T00:43:53;100391.91;;;9.84;68.86
70841;BME280;58465;51.534;9.934;2023-02-17T00:46:19;100385.63;;;9.89;68.50
70841;BME280;58465;51.534;9.934;2023-02-17T00:48:45;100376.78;;;9.83;68.97
70841;BME280;58465;51.534;9.934;2023-02-17T00:51:11;100372.41;;;9.80;69.07
70841;BME280;58465;51.534;9.934;2023-02-17T00:53:36;100374.25;;;9.74;69.54
70841;BME280;58465;51.534;9.934;2023-02-17T00:56:02;100373.31;;;9.79;69.74
70841;BME280;58465;51.534;9.934;2023-02-17T00:58:28;100380.47;;;9.74;70.22
70841;BME280;58465;51.534;9.934;2023-02-17T01:00:54;100374.25;;;9.75;70.22
70841;BME280;58465;51.534;9.934;2023-02-17T01:03:20;100382.25;;;9.75;70.74
70841;BME280;58465;51.534;9.934;2023-02-17T01:05:46;100378.66;;;9.79;70.52
70841;BME280;58465;51.534;9.934;2023-02-17T01:08:13;100369.81;;;9.73;71.21
70841;BME280;58465;51.534;9.934;2023-02-17T01:10:41;100368.88;;;9.77;70.95
70841;BME280;58465;51.534;9.934;2023-02-17T01:13:07;100372.59;;;9.65;71.76
70841;BME280;58465;51.534;9.934;2023-02-17T01:15:41;100368.94;;;9.72;71.82
70841;BME280;58465;51.534;9.934;2023-02-17T01:18:06;100364.56;;;9.70;71.90
70841;BME280;58465;51.534;9.934;2023-02-17T01:20:39;100348.47;;;9.73;71.65
70841;BME280;58465;51.534;9.934;2023-02-17T01:23:06;100342.31;;;9.71;71.71
70841;BME280;58465;51.534;9.934;2023-02-17T01:25:38;100345.84;;;9.71;71.87
70841;BME280;58465;51.534;9.934;2023-02-17T01:28:04;100337.81;;;9.74;71.92
70841;BME280;58465;51.534;9.934;2023-02-17T01:30:29;100336.03;;;9.73;71.53
70841;BME280;58465;51.534;9.934;2023-02-17T01:32:55;100328.03;;;9.73;71.46
70841;BME280;58465;51.534;9.934;2023-02-17T01:35:20;100328.91;;;9.74;71.53
70841;BME280;58465;51.534;9.934;2023-02-17T01:37:46;100329.78;;;9.76;71.58
70841;BME280;58465;51.534;9.934;2023-02-17T01:40:13;100331.44;;;9.83;71.32
70841;BME280;58465;51.534;9.934;2023-02-17T01:42:39;100326.97;;;9.86;71.14
70841;BME280;58465;51.534;9.934;2023-02-17T01:50:32;100326.84;;;9.92;71.03
70841;BME280;58465;51.534;9.934;2023-02-17T01:52:59;100322.34;;;9.96;71.10
70841;BME280;58465;51.534;9.934;2023-02-17T01:55:25;100313.44;;;9.97;70.87
70841;BME280;58465;51.534;9.934;2023-02-17T01:57:52;100312.59;;;9.95;70.92
70841;BME280;58465;51.534;9.934;2023-02-17T02:00:20;100316.06;;;10.00;70.89
70841;BME280;58465;51.534;9.934;2023-02-17T02:02:48;100308.88;;;10.05;70.45
70841;BME280;58465;51.534;9.934;2023-02-17T02:05:15;100307.09;;;10.05;70.51
70841;BME280;58465;51.534;9.934;2023-02-17T02:07:43;100297.28;;;10.06;70.50
70841;BME280;58465;51.534;9.934;2023-02-17T02:10:11;100300.88;;;10.05;70.68
70841;BME280;58465;51.534;9.934;2023-02-17T02:12:39;100296.38;;;10.09;70.91
70841;BME280;58465;51.534;9.934;2023-02-17T02:15:15;100293.66;;;10.10;70.77
70841;BME280;58465;51.534;9.934;2023-02-17T02:18:04;100292.81;;;10.08;70.99
70841;BME280;58465;51.534;9.934;2023-02-17T02:29:24;100276.69;;;10.14;71.13
70841;BME280;58465;51.534;9.934;2023-02-17T02:34:54;100263.25;;;10.20;70.97
70841;BME280;58465;51.534;9.934;2023-02-17T02:37:26;100255.31;;;10.16;71.16
70841;BME280;58465;51.534;9.934;2023-02-17T02:39:56;100249.97;;;10.17;71.33
70841;BME280;58465;51.534;9.934;2023-02-17T02:42:24;100254.38;;;10.20;71.16
70841;BME280;58465;51.534;9.934;2023-02-17T02:44:51;100246.41;;;10.17;71.59
70841;BME280;58465;51.534;9.934;2023-02-17T02:50:13;100233.06;;;10.15;71.89
70841;BME280;58465;51.534;9.934;2023-02-17T03:04:05;100234.78;;;10.21;72.32
70841;BME280;58465;51.534;9.934;2023-02-17T03:06:45;100230.28;;;10.24;71.88
70841;BME280;58465;51.534;9.934;2023-02-17T03:09:31;100222.22;;;10.27;72.18
70841;BME280;58465;51.534;9.934;2023-02-17T03:11:57;100225.72;;;10.29;72.02
70841;BME280;58465;51.534;9.934;2023-02-17T03:14:23;100224.13;;;10.19;72.40
70841;BME280;58465;51.534;9.934;2023-02-17T03:16:50;100218.75;;;10.21;72.75
70841;BME280;58465;51.534;9.934;2023-02-17T03:19:18;100224.91;;;10.26;72.49
70841;BME280;58465;51.534;9.934;2023-02-17T03:21:50;100220.56;;;10.20;72.67
70841;BME280;58465;51.534;9.934;2023-02-17T03:24:17;100216.06;;;10.22;72.67
70841;BME280;58465;51.534;9.934;2023-02-17T03:26:43;100219.63;;;10.23;72.76
70841;BME280;58465;51.534;9.934;2023-02-17T03:29:08;100220.59;;;10.19;73.15
70841;BME280;58465;51.534;9.934;2023-02-17T03:31:34;100223.03;;;10.31;72.69
70841;BME280;58465;51.534;9.934;2023-02-17T03:33:59;100226.56;;;10.33;72.71
70841;BME280;58465;51.534;9.934;2023-02-17T03:36:25;100214.94;;;10.35;72.41
70841;BME280;58465;51.534;9.934;2023-02-17T03:38:50;100207.03;;;10.29;72.68
70841;BME280;58465;51.534;9.934;2023-02-17T03:41:15;100211.41;;;10.35;72.63
70841;BME280;58465;51.534;9.934;2023-02-17T03:43:41;100205.19;;;10.33;72.62
70841;BME280;58465;51.534;9.934;2023-02-17T03:46:13;100198.06;;;10.33;72.98
70841;BME280;58465;51.534;9.934;2023-02-17T03:48:39;100182.91;;;10.35;72.63
70841;BME280;58465;51.534;9.934;2023-02-17T03:51:16;100176.69;;;10.35;72.44
70841;BME280;58465;51.534;9.934;2023-02-17T03:53:42;100177.63;;;10.32;72.67
70841;BME280;58465;51.534;9.934;2023-02-17T03:56:08;100178.50;;;10.33;72.82
70841;BME280;58465;51.534;9.934;2023-02-17T03:58:34;100174.94;;;10.34;72.89
70841;BME280;58465;51.534;9.934;2023-02-17T04:00:59;100174.03;;;10.35;72.95
70841;BME280;58465;51.534;9.934;2023-02-17T04:03:25;100170.34;;;10.40;72.64
70841;BME280;58465;51.534;9.934;2023-02-17T04:05:50;100174.94;;;10.32;73.03
70841;BME280;58465;51.534;9.934;2023-02-17T04:08:15;100171.28;;;10.38;72.67
70841;BME280;58465;51.534;9.934;2023-02-17T04:10:41;100164.13;;;10.38;72.80
70841;BME280;58465;51.534;9.934;2023-02-17T04:13:06;100158.06;;;10.32;73.34
70841;BME280;58465;51.534;9.934;2023-02-17T04:15:31;100166.88;;;10.35;73.22
70841;BME280;58465;51.534;9.934;2023-02-17T04:17:57;100163.41;;;10.30;73.22
70841;BME280;58465;51.534;9.934;2023-02-17T04:20:22;100158.91;;;10.34;73.35
70841;BME280;58465;51.534;9.934;2023-02-17T04:22:47;100155.28;;;10.38;72.96
70841;BME280;58465;51.534;9.934;2023-02-17T04:25:12;100161.53;;;10.37;73.22
70841;BME280;58465;51.534;9.934;2023-02-17T04:27:38;100160.53;;;10.41;73.14
70841;BME280;58465;51.534;9.934;2023-02-17T04:30:04;100170.50;;;10.33;73.53
70841;BME280;58465;51.534;9.934;2023-02-17T04:32:31;100162.63;;;10.27;73.96
70841;BME280;58465;51.534;9.934;2023-02-17T04:34:56;100161.59;;;10.32;73.56
70841;BME280;58465;51.534;9.934;2023-02-17T04:37:21;100158.78;;;10.40;73.58
70841;BME280;58465;51.534;9.934;2023-02-17T04:39:47;100163.16;;;10.44;73.02
70841;BME280;58465;51.534;9.934;2023-02-17T04:42:12;100164.09;;;10.40;73.26
70841;BME280;58465;51.534;9.934;2023-02-17T04:44:37;100165.78;;;10.47;72.94
70841;BME280;58465;51.534;9.934;2023-02-17T04:47:03;100167.44;;;10.53;72.82
70841;BME280;58465;51.534;9.934;2023-02-17T04:49:28;100160.28;;;10.55;72.91
70841;BME280;58465;51.534;9.934;2023-02-17T04:51:53;100160.28;;;10.53;72.88
70841;BME280;58465;51.534;9.934;2023-02-17T04:54:19;100163.78;;;10.57;72.76
70841;BME280;58465;51.534;9.934;2023-02-17T04:56:46;100175.31;;;10.57;72.81
70841;BME280;58465;51.534;9.934;2023-02-17T04:59:12;100175.25;;;10.62;72.87
70841;BME280;58465;51.534;9.934;2023-02-17T05:01:37;100174.50;;;10.55;73.00
70841;BME280;58465;51.534;9.934;2023-02-17T05:04:02;100160.13;;;10.61;72.88
70841;BME280;58465;51.534;9.934;2023-02-17T05:06:28;100156.50;;;10.65;72.75
70841;BME280;58465;51.534;9.934;2023-02-17T05:08:53;100164.53;;;10.63;72.86
70841;BME280;58465;51.534;9.934;2023-02-17T05:11:18;100158.38;;;10.60;72.95
70841;BME280;58465;51.534;9.934;2023-02-17T05:13:44;100160.97;;;10.63;73.11
70841;BME280;58465;51.534;9.934;2023-02-17T05:16:10;100150.31;;;10.63;72.88
70841;BME280;58465;51.534;9.934;2023-02-17T05:18:35;100153.94;;;10.59;73.22
70841;BME280;58465;51.534;9.934;2023-02-17T05:21:00;100152.91;;;10.66;72.66
70841;BME280;58465;51.534;9.934;2023-02-17T05:23:26;100155.63;;;10.64;72.89
70841;BME280;58465;51.534;9.934;2023-02-17T05:25:51;100160.94;;;10.66;73.21
70841;BME280;58465;51.534;9.934;2023-02-17T05:28:16;100160.78;;;10.72;72.79
70841;BME280;58465;51.534;9.934;2023-02-17T05:30:42;100169.69;;;10.72;72.88
70841;BME280;58465;51.534;9.934;2023-02-17T05:33:07;100178.53;;;10.76;72.59
70841;BME280;58465;51.534;9.934;2023-02-17T05:35:34;100166.09;;;10.73;72.58
70841;BME280;58465;51.534;9.934;2023-02-17T05:37:59;100154.66;;;10.67;73.05
70841;BME280;58465;51.534;9.934;2023-02-17T05:40:25;100155.44;;;10.72;72.84
70841;BME280;58465;51.534;9.934;2023-02-17T05:42:50;100160.00;;;10.67;72.99
70841;BME280;58465;51.534;9.934;2023-02-17T05:45:15;100155.41;;;10.75;72.83
70841;BME280;58465;51.534;9.934;2023-02-17T05:47:41;100150.00;;;10.76;72.85
70841;BME280;58465;51.534;9.934;2023-02-17T05:50:06;100138.38;;;10.79;72.51
70841;BME280;58465;51.534;9.934;2023-02-17T05:52:32;100126.78;;;10.78;72.55
70841;BME280;58465;51.534;9.934;2023-02-17T05:54:57;100133.91;;;10.79;72.55
70841;BME280;58465;51.534;9.934;2023-02-17T05:57:22;100123.19;;;10.81;72.42
70841;BME280;58465;51.534;9.934;2023-02-17T05:59:48;100125.94;;;10.76;72.70
70841;BME280;58465;51.534;9.934;2023-02-17T06:02:13;100131.25;;;10.78;72.72
70841;BME280;58465;51.534;9.934;2023-02-17T06:04:38;100118.75;;;10.80;72.40
70841;BME280;58465;51.534;9.934;2023-02-17T06:07:04;100118.88;;;10.75;72.88
70841;BME280;58465;51.534;9.934;2023-02-17T06:09:29;100110.91;;;10.72;72.85
70841;BME280;58465;51.534;9.934;2023-02-17T06:11:55;100116.06;;;10.82;72.63
70841;BME280;58465;51.534;9.934;2023-02-17T06:14:20;100107.97;;;10.85;72.66
70841;BME280;58465;51.534;9.934;2023-02-17T06:16:45;100114.06;;;10.91;72.32
70841;BME280;58465;51.534;9.934;2023-02-17T06:19:10;100115.81;;;10.92;72.18
70841;BME280;58465;51.534;9.934;2023-02-17T06:21:36;100121.22;;;10.89;72.26
70841;BME280;58465;51.534;9.934;2023-02-17T06:24:01;100127.47;;;10.88;72.20
70841;BME280;58465;51.534;9.934;2023-02-17T06:26:27;100120.25;;;10.93;72.16
70841;BME280;58465;51.534;9.934;2023-02-17T06:28:52;100124.75;;;10.91;72.44
70841;BME280;58465;51.534;9.934;2023-02-17T06:31:17;100128.25;;;10.93;72.12
70841;BME280;58465;51.534;9.934;2023-02-17T06:33:42;100138.06;;;10.93;72.11
70841;BME280;58465;51.534;9.934;2023-02-17T06:36:08;100138.06;;;10.93;72.15
70841;BME280;58465;51.534;9.934;2023-02-17T06:38:33;100131.59;;;11.03;71.71
70841;BME280;58465;51.534;9.934;2023-02-17T06:40:59;100129.72;;;11.06;71.37
70841;BME280;58465;51.534;9.934;2023-02-17T06:43:24;100116.41;;;11.05;71.49
70841;BME280;58465;51.534;9.934;2023-02-17T06:45:49;100122.91;;;10.93;71.64
70841;BME280;58465;51.534;9.934;2023-02-17T06:48:15;100129.16;;;10.92;71.99
70841;BME280;58465;51.534;9.934;2023-02-17T06:50:40;100128.25;;;10.93;71.83
70841;BME280;58465;51.534;9.934;2023-02-17T06:53:05;100127.19;;;11.00;71.98
70841;BME280;58465;51.534;9.934;2023-02-17T06:55:31;100122.81;;;10.96;71.73
70841;BME280;58465;51.534;9.934;2023-02-17T06:57:58;100122.75;;;10.99;71.67
70841;BME280;58465;51.534;9.934;2023-02-17T07:00:24;100118.31;;;11.00;71.70
70841;BME280;58465;51.534;9.934;2023-02-17T07:02:49;100107.63;;;11.00;71.88
70841;BME280;58465;51.534;9.934;2023-02-17T07:05:14;100109.31;;;11.04;71.57
70841;BME280;58465;51.534;9.934;2023-02-17T07:07:40;100104.91;;;11.01;71.74
70841;BME280;58465;51.534;9.934;2023-02-17T07:10:06;100135.94;;;11.07;71.57
70841;BME280;58465;51.534;9.934;2023-02-17T07:12:31;100126.03;;;11.12;71.29
70841;BME280;58465;51.534;9.934;2023-02-17T07:14:56;100130.38;;;11.16;71.14
70841;BME280;58465;51.534;9.934;2023-02-17T07:17:24;100114.44;;;11.13;71.11
70841;BME280;58465;51.534;9.934;2023-02-17T07:19:50;100111.78;;;11.13;71.07
70841;BME280;58465;51.534;9.934;2023-02-17T07:22:15;100100.97;;;11.16;71.13
70841;BME280;58465;51.534;9.934;2023-02-17T07:24:40;100094.53;;;11.25;70.58
70841;BME280;58465;51.534;9.934;2023-02-17T07:27:06;100100.63;;;11.31;70.35
70841;BME280;58465;51.534;9.934;2023-02-17T07:29:33;100103.19;;;11.34;70.57
70841;BME280;58465;51.534;9.934;2023-02-17T07:31:58;100089.09;;;11.29;70.80
70841;BME280;58465;51.534;9.934;2023-02-17T07:34:23;100086.22;;;11.37;70.29
70841;BME280;58465;51.534;9.934;2023-02-17T07:36:49;100092.22;;;11.46;70.07
70841;BME280;58465;51.534;9.934;2023-02-17T07:39:15;100100.19;;;11.48;69.94
70841;BME280;58465;51.534;9.934;2023-02-17T07:41:40;100096.38;;;11.58;69.68
70841;BME280;58465;51.534;9.934;2023-02-17T07:44:06;100098.31;;;11.53;69.77
70841;BME280;58465;51.534;9.934;2023-02-17T07:46:31;100099.72;;;11.66;69.47
70841;BME280;58465;51.534;9.934;2023-02-17T07:48:57;100092.38;;;11.74;69.12
70841;BME280;58465;51.534;9.934;2023-02-17T07:51:23;100094.09;;;11.78;68.90
70841;BME280;58465;51.534;9.934;2023-02-17T07:53:50;100098.34;;;11.85;68.83
70841;BME280;58465;51.534;9.934;2023-02-17T07:56:17;100094.75;;;11.86;68.54
70841;BME280;58465;51.534;9.934;2023-02-17T07:58:43;100100.06;;;11.88;68.55
70841;BME280;58465;51.534;9.934;2023-02-17T08:01:12;100093.03;;;11.84;68.80
70841;BME280;58465;51.534;9.934;2023-02-17T08:03:37;100107.34;;;11.83;68.68
70841;BME280;58465;51.534;9.934;2023-02-17T08:06:03;100106.16;;;11.93;68.47
70841;BME280;58465;51.534;9.934;2023-02-17T08:08:28;100101.03;;;11.85;68.34
70841;BME280;58465;51.534;9.934;2023-02-17T08:11:15;100095.69;;;11.85;68.77
70841;BME280;58465;51.534;9.934;2023-02-17T08:13:59;100094.78;;;11.85;68.76
70841;BME280;58465;51.534;9.934;2023-02-17T08:16:24;100088.97;;;12.02;68.33
70841;BME280;58465;51.534;9.934;2023-02-17T08:18:55;100091.47;;;12.09;68.00
70841;BME280;58465;51.534;9.934;2023-02-17T08:21:22;100096.63;;;12.15;67.85
70841;BME280;58465;51.534;9.934;2023-02-17T08:23:47;100075.22;;;12.15;67.94
70841;BME280;58465;51.534;9.934;2023-02-17T08:26:12;100073.41;;;12.16;67.85
70841;BME280;58465;51.534;9.934;2023-02-17T08:28:39;100078.78;;;12.16;67.74
70841;BME280;58465;51.534;9.934;2023-02-17T08:31:04;100078.53;;;12.23;67.96
70841;BME280;58465;51.534;9.934;2023-02-17T08:33:29;100077.09;;;12.12;67.99
70841;BME280;58465;51.534;9.934;2023-02-17T08:35:55;100074.03;;;12.25;67.72
70841;BME280;58465;51.534;9.934;2023-02-17T08:38:20;100074.66;;;12.35;67.49
70841;BME280;58465;51.534;9.934;2023-02-17T08:40:45;100077.13;;;12.41;67.32
70841;BME280;58465;51.534;9.934;2023-02-17T08:43:11;100067.22;;;12.45;67.25
70841;BME280;58465;51.534;9.934;2023-02-17T08:45:36;100057.13;;;12.53;66.99
70841;BME280;58465;51.534;9.934;2023-02-17T08:48:04;100065.13;;;12.54;66.82
70841;BME280;58465;51.534;9.934;2023-02-17T08:50:31;100086.44;;;12.59;67.06
70841;BME280;58465;51.534;9.934;2023-02-17T08:52:57;100074.19;;;12.50;67.01
70841;BME280;58465;51.534;9.934;2023-02-17T08:55:22;100077.72;;;12.51;66.97
70841;BME280;58465;51.534;9.934;2023-02-17T08:57:48;100075.06;;;12.51;67.26
70841;BME280;58465;51.534;9.934;2023-02-17T09:00:15;100074.28;;;12.47;67.17
70841;BME280;58465;51.534;9.934;2023-02-17T09:02:41;100068.97;;;12.46;67.52
70841;BME280;58465;51.534;9.934;2023-02-17T09:05:10;100062.94;;;12.69;66.92
70841;BME280;58465;51.534;9.934;2023-02-17T09:07:36;100058.09;;;12.80;66.49
70841;BME280;58465;51.534;9.934;2023-02-17T09:10:05;100067.81;;;12.84;66.42
70841;BME280;58465;51.534;9.934;2023-02-17T09:12:31;100066.03;;;12.83;66.38
70841;BME280;58465;51.534;9.934;2023-02-17T09:14:57;100061.97;;;12.70;66.40
70841;BME280;58465;51.534;9.934;2023-02-17T09:17:22;100066.69;;;12.61;67.03
70841;BME280;58465;51.534;9.934;2023-02-17T09:19:48;100067.41;;;12.68;66.71
70841;BME280;58465;51.534;9.934;2023-02-17T09:22:14;100063.72;;;12.71;66.83
70841;BME280;58465;51.534;9.934;2023-02-17T09:24:42;100069.38;;;12.61;66.97
70841;BME280;58465;51.534;9.934;2023-02-17T09:27:07;100061.94;;;12.71;66.97
70841;BME280;58465;51.534;9.934;2023-02-17T09:29:33;100064.50;;;12.76;66.68
70841;BME280;58465;51.534;9.934;2023-02-17T09:31:58;100058.41;;;12.69;67.01
70841;BME280;58465;51.534;9.934;2023-02-17T09:34:23;100063.72;;;12.71;66.86
70841;BME280;58465;51.534;9.934;2023-02-17T09:36:48;100052.88;;;12.75;66.64
70841;BME280;58465;51.534;9.934;2023-02-17T09:39:15;100049.47;;;12.70;67.00
70841;BME280;58465;51.534;9.934;2023-02-17T09:41:46;100046.84;;;12.69;67.13
70841;BME280;58465;51.534;9.934;2023-02-17T09:44:22;100036.34;;;12.61;67.40
70841;BME280;58465;51.534;9.934;2023-02-17T09:49:25;100044.94;;;12.72;67.15
70841;BME280;58465;51.534;9.934;2023-02-17T09:52:01;100046.72;;;12.72;67.06
70841;BME280;58465;51.534;9.934;2023-02-17T09:57:13;100050.84;;;12.83;66.92
70841;BME280;58465;51.534;9.934;2023-02-17T09:59:44;100055.13;;;12.89;66.70
70841;BME280;58465;51.534;9.934;2023-02-17T10:02:18;100060.13;;;12.99;66.39
70841;BME280;58465;51.534;9.934;2023-02-17T10:04:51;100052.50;;;12.87;67.07
70841;BME280;58465;51.534;9.934;2023-02-17T10:07:31;100053.09;;;12.97;66.42
70841;BME280;58465;51.534;9.934;2023-02-17T10:10:33;100048.31;;;13.07;66.50
70841;BME280;58465;51.534;9.934;2023-02-17T10:13:04;100048.91;;;13.16;65.98
70841;BME280;58465;51.534;9.934;2023-02-17T10:15:34;100043.13;;;13.00;66.58
70841;BME280;58465;51.534;9.934;2023-02-17T10:18:14;100038.56;;;13.04;66.47
70841;BME280;58465;51.534;9.934;2023-02-17T10:20:45;100031.66;;;13.25;66.05
70841;BME280;58465;51.534;9.934;2023-02-17T10:23:17;100036.94;;;13.26;65.94
70841;BME280;58465;51.534;9.934;2023-02-17T10:26:09;100028.75;;;13.03;66.60
70841;BME280;58465;51.534;9.934;2023-02-17T10:31:27;100041.41;;;12.98;66.72
70841;BME280;58465;51.534;9.934;2023-02-17T10:34:04;100053.56;;;13.10;66.33
70841;BME280;58465;51.534;9.934;2023-02-17T10:36:46;100048.31;;;13.07;66.54
70841;BME280;58465;51.534;9.934;2023-02-17T10:42:08;100053.34;;;13.44;65.74
70841;BME280;58465;51.534;9.934;2023-02-17T10:44:38;100043.06;;;13.56;65.08
70841;BME280;58465;51.534;9.934;2023-02-17T10:47:08;100061.94;;;13.55;65.31
70841;BME280;58465;51.534;9.934;2023-02-17T10:49:46;100064.09;;;13.68;64.81
70841;BME280;58465;51.534;9.934;2023-02-17T10:52:32;100068.50;;;13.71;64.79
70841;BME280;58465;51.534;9.934;2023-02-17T10:55:07;100051.53;;;13.70;64.73
70841;BME280;58465;51.534;9.934;2023-02-17T10:57:37;100051.53;;;13.70;64.74
70841;BME280;58465;51.534;9.934;2023-02-17T11:00:09;100037.81;;;13.78;64.74
70841;BME280;58465;51.534;9.934;2023-02-17T11:02:48;100044.41;;;13.69;64.64
70841;BME280;58465;51.534;9.934;2023-02-17T11:08:03;100038.09;;;13.95;64.20
70841;BME280;58465;51.534;9.934;2023-02-17T11:10:35;100038.97;;;13.96;64.35
70841;BME280;58465;51.534;9.934;2023-02-17T11:13:01;100018.00;;;13.82;64.92
70841;BME280;58465;51.534;9.934;2023-02-17T11:15:35;100004.19;;;13.93;64.66
70841;BME280;58465;51.534;9.934;2023-02-17T11:18:17;99997.06;;;13.92;64.54
70841;BME280;58465;51.534;9.934;2023-02-17T11:20:45;99988.38;;;14.08;64.44
70841;BME280;58465;51.534;9.934;2023-02-17T11:23:21;99994.84;;;14.26;63.94
70841;BME280;58465;51.534;9.934;2023-02-17T11:26:00;99982.69;;;14.16;64.26
70841;BME280;58465;51.534;9.934;2023-02-17T11:28:26;99984.94;;;14.28;63.99
70841;BME280;58465;51.534;9.934;2023-02-17T11:30:55;99970.75;;;14.48;63.34
70841;BME280;58465;51.534;9.934;2023-02-17T11:33:41;99971.00;;;14.64;63.09
70841;BME280;58465;51.534;9.934;2023-02-17T11:36:07;99967.50;;;14.83;62.48
70841;BME280;58465;51.534;9.934;2023-02-17T11:41:04;99951.25;;;14.65;62.82
70841;BME280;58465;51.534;9.934;2023-02-17T11:43:32;99948.25;;;14.72;62.80
70841;BME280;58465;51.534;9.934;2023-02-17T11:46:16;99948.63;;;14.85;62.56
70841;BME280;58465;51.534;9.934;2023-02-17T11:48:56;99958.63;;;14.81;62.56
70841;BME280;58465;51.534;9.934;2023-02-17T11:54:23;99945.19;;;14.81;62.92
70841;BME280;58465;51.534;9.934;2023-02-17T11:57:32;99942.94;;;14.71;62.93
70841;BME280;58465;51.534;9.934;2023-02-17T12:00:19;99944.19;;;14.84;62.82
70841;BME280;58465;51.534;9.934;2023-02-17T12:06:28;99945.63;;;14.93;62.35
70841;BME280;58465;51.534;9.934;2023-02-17T12:08:41;99940.09;;;15.17;62.07
70841;BME280;58465;51.534;9.934;2023-02-17T12:11:31;99930.69;;;15.28;61.41
70841;BME280;58465;51.534;9.934;2023-02-17T12:14:14;99936.69;;;15.54;60.74
70841;BME280;58465;51.534;9.934;2023-02-17T12:16:51;99935.28;;;15.66;60.37
70841;BME280;58465;51.534;9.934;2023-02-17T12:19:55;99926.09;;;15.70;60.08
70841;BME280;58465;51.534;9.934;2023-02-17T12:25:30;99900.56;;;16.35;58.77
70841;BME280;58465;51.534;9.934;2023-02-17T12:33:37;99862.84;;;17.74;54.71
70841;BME280;58465;51.534;9.934;2023-02-17T12:36:10;99858.81;;;18.62;52.30
70841;BME280;58465;51.534;9.934;2023-02-17T12:38:42;99840.28;;;18.38;52.36
70841;BME280;58465;51.534;9.934;2023-02-17T12:41:17;99851.66;;;18.45;52.17
70841;BME280;58465;51.534;9.934;2023-02-17T12:43:53;99850.78;;;18.13;52.41
70841;BME280;58465;51.534;9.934;2023-02-17T12:46:35;99844.31;;;17.34;54.85
70841;BME280;58465;51.534;9.934;2023-02-17T12:49:08;99841.97;;;17.11;55.64
70841;BME280;58465;51.534;9.934;2023-02-17T12:51:47;99836.81;;;16.72;56.61
70841;BME280;58465;51.534;9.934;2023-02-17T12:54:22;99832.97;;;16.76;56.86
70841;BME280;58465;51.534;9.934;2023-02-17T12:59:21;99834.66;;;16.78;57.10
70841;BME280;58465;51.534;9.934;2023-02-17T13:01:54;99827.59;;;16.76;56.98
70841;BME280;58465;51.534;9.934;2023-02-17T13:04:24;99822.28;;;17.09;56.20
70841;BME280;58465;51.534;9.934;2023-02-17T13:06:58;99827.69;;;17.09;56.13
70841;BME280;58465;51.534;9.934;2023-02-17T13:14:54;99819.25;;;16.97;56.31
70841;BME280;58465;51.534;9.934;2023-02-17T13:17:31;99814.97;;;17.11;56.00
70841;BME280;58465;51.534;9.934;2023-02-17T13:22:40;99803.81;;;17.01;56.36
70841;BME280;58465;51.534;9.934;2023-02-17T13:25:26;99806.56;;;16.99;56.57
70841;BME280;58465;51.534;9.934;2023-02-17T13:27:51;99807.94;;;16.91;56.29
70841;BME280;58465;51.534;9.934;2023-02-17T13:32:43;99814.28;;;16.90;56.64
70841;BME280;58465;51.534;9.934;2023-02-17T13:37:49;99807.44;;;16.65;57.03
70841;BME280;58465;51.534;9.934;2023-02-17T13:42:42;99810.13;;;16.83;56.58
70841;BME280;58465;51.534;9.934;2023-02-17T13:45:31;99808.97;;;16.88;56.44
70841;BME280;58465;51.534;9.934;2023-02-17T13:48:12;99807.53;;;16.81;56.30
70841;BME280;58465;51.534;9.934;2023-02-17T13:50:46;99810.69;;;17.06;55.82
70841;BME280;58465;51.534;9.934;2023-02-17T13:56:00;99794.31;;;16.58;56.76
70841;BME280;58465;51.534;9.934;2023-02-17T13:58:35;99807.94;;;16.55;56.84
70841;BME280;58465;51.534;9.934;2023-02-17T14:01:03;99813.47;;;16.34;57.24
70841;BME280;58465;51.534;9.934;2023-02-17T14:06:02;99820.84;;;16.31;57.29
70841;BME280;58465;51.534;9.934;2023-02-17T14:08:33;99829.38;;;16.22;57.20
70841;BME280;58465;51.534;9.934;2023-02-17T14:11:20;99840.38;;;16.17;57.39
70841;BME280;58465;51.534;9.934;2023-02-17T14:13:48;99843.56;;;16.25;57.07
70841;BME280;58465;51.534;9.934;2023-02-17T14:16:30;99841.53;;;16.30;56.66
70841;BME280;58465;51.534;9.934;2023-02-17T14:19:25;99848.88;;;16.27;56.81
70841;BME280;58465;51.534;9.934;2023-02-17T14:22:02;99859.41;;;16.14;57.20
70841;BME280;58465;51.534;9.934;2023-02-17T14:24:36;99871.69;;;16.20;57.13
70841;BME280;58465;51.534;9.934;2023-02-17T14:27:03;99878.25;;;16.33;56.54